sensor_id;sensor_type;location;lat;lon;timestamp;temperature;humidity
75091;DHT22;63674;48.048;8.306;2023-03-01T00:01:51;-6.50;99.90
75091;DHT22;63674;48.048;8.306;2023-03-01T00:04:19;-6.50;99.90
75091;DHT22;63674;48.048;8.306;2023-03-01T00:06:48;-6.60;99.90
75091;DHT22;63674;48.048;8.306;2023-03-01T00:09:17;-6.50;99.90
75091;DHT22;63674;48.048;8.306;2023-03-01T00:11:46;-6.70;99.90
75091;DHT22;63674;48.048;8.306;2023-03-01T00:14:14;-6.70;99.90
75091;DHT22;63674;48.048;8.306;2023-03-01T00:16:46;-6.70;99.90
75091;DHT22;63674;48.048;8.306;2023-03-01T00:19:16;-6.70;99.90
75091;DHT22;63674;48.048;8.306;2023-03-01T00:21:46;-6.80;99.90
75091;DHT22;63674;48.048;8.306;2023-03-01T00:24:14;-6.80;99.90
75091;DHT22;63674;48.048;8.306;2023-03-01T00:26:44;-6.80;99.90
75091;DHT22;63674;48.048;8.306;2023-03-01T00:29:13;-6.80;99.90
75091;DHT22;63674;48.048;8.306;2023-03-01T00:31:41;-6.80;99.90
75091;DHT22;63674;48.048;8.306;2023-03-01T00:34:11;-6.80;99.90
75091;DHT22;63674;48.048;8.306;2023-03-01T00:36:40;-6.80;99.90
75091;DHT22;63674;48.048;8.306;2023-03-01T00:39:11;-6.80;99.90
75091;DHT22;63674;48.048;8.306;2023-03-01T00:41:42;-6.80;99.90
75091;DHT22;63674;48.048;8.306;2023-03-01T00:44:11;-6.70;99.90
75091;DHT22;63674;48.048;8.306;2023-03-01T00:46:40;-6.70;99.90
75091;DHT22;63674;48.048;8.306;2023-03-01T00:49:08;-6.70;99.90
75091;DHT22;63674;48.048;8.306;2023-03-01T00:51:38;-6.70;99.90
75091;DHT22;63674;48.048;8.306;2023-03-01T00:54:08;-6.70;99.90
75091;DHT22;63674;48.048;8.306;2023-03-01T00:56:37;-6.60;99.90
75091;DHT22;63674;48.048;8.306;2023-03-01T00:59:06;-6.50;99.90
75091;DHT22;63674;48.048;8.306;2023-03-01T01:01:34;-6.40;99.90
75091;DHT22;63674;48.048;8.306;2023-03-01T01:04:04;-6.40;99.90
75091;DHT22;63674;48.048;8.306;2023-03-01T01:06:35;-6.40;99.90
75091;DHT22;63674;48.048;8.306;2023-03-01T01:09:07;-6.30;99.90
75091;DHT22;63674;48.048;8.306;2023-03-01T01:11:36;-6.30;99.90
75091;DHT22;63674;48.048;8.306;2023-03-01T01:14:05;-6.20;99.90
75091;DHT22;63674;48.048;8.306;2023-03-01T01:16:33;-6.10;99.90
75091;DHT22;63674;48.048;8.306;2023-03-01T01:19:02;-6.00;99.90
75091;DHT22;63674;48.048;8.306;2023-03-01T01:21:31;-6.00;99.90
75091;DHT22;63674;48.048;8.306;2023-03-01T01:24:03;-5.80;99.90
75091;DHT22;63674;48.048;8.306;2023-03-01T01:26:33;-5.80;99.90
75091;DHT22;63674;48.048;8.306;2023-03-01T01:29:03;-5.70;99.90
75091;DHT22;63674;48.048;8.306;2023-03-01T01:31:34;-5.60;99.90
75091;DHT22;63674;48.048;8.306;2023-03-01T01:34:06;-5.60;99.90
75091;DHT22;63674;48.048;8.306;2023-03-01T01:36:36;-5.60;99.90
75091;DHT22;63674;48.048;8.306;2023-03-01T01:39:07;-5.60;99.90
75091;DHT22;63674;48.048;8.306;2023-03-01T01:41:41;-5.50;99.90
75091;DHT22;63674;48.048;8.306;2023-03-01T01:44:16;-5.40;99.90
75091;DHT22;63674;48.048;8.306;2023-03-01T01:46:49;-5.30;99.90
75091;DHT22;63674;48.048;8.306;2023-03-01T01:49:29;-5.30;99.90
75091;DHT22;63674;48.048;8.306;2023-03-01T01:52:06;-5.20;99.90
75091;DHT22;63674;48.048;8.306;2023-03-01T01:54:43;-5.20;99.90
75091;DHT22;63674;48.048;8.306;2023-03-01T01:57:14;-5.20;99.90
75091;DHT22;63674;48.048;8.306;2023-03-01T01:59:49;-5.20;99.90
75091;DHT22;63674;48.048;8.306;2023-03-01T02:02:20;-5.20;99.90
75091;DHT22;63674;48.048;8.306;2023-03-01T02:04:52;-5.20;99.90
75091;DHT22;63674;48.048;8.306;2023-03-01T02:07:26;-5.10;99.90
75091;DHT22;63674;48.048;8.306;2023-03-01T02:09:57;-5.10;99.90
75091;DHT22;63674;48.048;8.306;2023-03-01T02:12:26;-5.00;99.90
75091;DHT22;63674;48.048;8.306;2023-03-01T02:14:55;-4.90;99.90
75091;DHT22;63674;48.048;8.306;2023-03-01T02:17:24;-4.90;99.90
75091;DHT22;63674;48.048;8.306;2023-03-01T02:20:03;-4.80;99.90
75091;DHT22;63674;48.048;8.306;2023-03-01T02:22:37;-4.80;99.90
75091;DHT22;63674;48.048;8.306;2023-03-01T02:25:21;-4.60;99.90
75091;DHT22;63674;48.048;8.306;2023-03-01T02:27:57;-4.50;99.90
75091;DHT22;63674;48.048;8.306;2023-03-01T02:30:30;-4.40;99.90
75091;DHT22;63674;48.048;8.306;2023-03-01T02:33:00;-4.40;99.90
75091;DHT22;63674;48.048;8.306;2023-03-01T02:35:38;-4.30;99.90
75091;DHT22;63674;48.048;8.306;2023-03-01T02:38:08;-4.30;99.90
75091;DHT22;63674;48.048;8.306;2023-03-01T02:40:38;-4.20;99.90
75091;DHT22;63674;48.048;8.306;2023-03-01T02:43:09;-4.10;99.90
75091;DHT22;63674;48.048;8.306;2023-03-01T02:45:47;-4.00;99.90
75091;DHT22;63674;48.048;8.306;2023-03-01T02:48:16;-4.00;99.90
75091;DHT22;63674;48.048;8.306;2023-03-01T02:50:53;-3.90;99.90
75091;DHT22;63674;48.048;8.306;2023-03-01T02:53:38;-3.90;99.90
75091;DHT22;63674;48.048;8.306;2023-03-01T02:56:09;-3.90;99.90
75091;DHT22;63674;48.048;8.306;2023-03-01T02:58:40;-3.80;99.90
75091;DHT22;63674;48.048;8.306;2023-03-01T03:01:14;-3.70;99.90
75091;DHT22;63674;48.048;8.306;2023-03-01T03:03:43;-3.60;99.90
75091;DHT22;63674;48.048;8.306;2023-03-01T03:06:12;-3.60;99.90
75091;DHT22;63674;48.048;8.306;2023-03-01T03:08:41;-3.60;99.90
75091;DHT22;63674;48.048;8.306;2023-03-01T03:11:10;-3.60;99.90
75091;DHT22;63674;48.048;8.306;2023-03-01T03:13:39;-3.50;99.90
75091;DHT22;63674;48.048;8.306;2023-03-01T03:16:16;-3.50;99.90
75091;DHT22;63674;48.048;8.306;2023-03-01T03:18:45;-3.40;99.90
75091;DHT22;63674;48.048;8.306;2023-03-01T03:21:14;-3.40;99.90
75091;DHT22;63674;48.048;8.306;2023-03-01T03:23:43;-3.30;99.90
75091;DHT22;63674;48.048;8.306;2023-03-01T03:26:12;-3.30;99.90
75091;DHT22;63674;48.048;8.306;2023-03-01T03:28:42;-3.30;99.90
75091;DHT22;63674;48.048;8.306;2023-03-01T03:31:10;-3.30;99.90
75091;DHT22;63674;48.048;8.306;2023-03-01T03:33:40;-3.20;99.90
75091;DHT22;63674;48.048;8.306;2023-03-01T03:36:09;-3.30;99.90
75091;DHT22;63674;48.048;8.306;2023-03-01T03:38:40;-3.20;99.90
75091;DHT22;63674;48.048;8.306;2023-03-01T03:41:08;-3.10;99.90
75091;DHT22;63674;48.048;8.306;2023-03-01T03:43:39;-3.10;99.90
75091;DHT22;63674;48.048;8.306;2023-03-01T03:46:12;-3.10;99.90
75091;DHT22;63674;48.048;8.306;2023-03-01T03:48:44;-3.10;99.90
75091;DHT22;63674;48.048;8.306;2023-03-01T03:51:14;-3.00;99.90
75091;DHT22;63674;48.048;8.306;2023-03-01T03:53:44;-3.00;99.90
75091;DHT22;63674;48.048;8.306;2023-03-01T03:56:13;-2.90;99.90
75091;DHT22;63674;48.048;8.306;2023-03-01T03:58:42;-2.90;99.90
75091;DHT22;63674;48.048;8.306;2023-03-01T04:01:10;-2.90;99.90
75091;DHT22;63674;48.048;8.306;2023-03-01T04:03:39;-2.80;99.90
75091;DHT22;63674;48.048;8.306;2023-03-01T04:06:10;-2.80;99.90
75091;DHT22;63674;48.048;8.306;2023-03-01T04:08:38;-2.80;99.90
75091;DHT22;63674;48.048;8.306;2023-03-01T04:11:08;-2.80;99.90
75091;DHT22;63674;48.048;8.306;2023-03-01T04:13:56;-2.80;99.90
75091;DHT22;63674;48.048;8.306;2023-03-01T04:16:27;-2.80;99.90
75091;DHT22;63674;48.048;8.306;2023-03-01T04:18:56;-2.80;99.90
75091;DHT22;63674;48.048;8.306;2023-03-01T04:21:28;-2.80;99.90
75091;DHT22;63674;48.048;8.306;2023-03-01T04:23:56;-2.80;99.90
75091;DHT22;63674;48.048;8.306;2023-03-01T04:26:25;-2.80;99.90
75091;DHT22;63674;48.048;8.306;2023-03-01T04:28:54;-2.70;99.90
75091;DHT22;63674;48.048;8.306;2023-03-01T04:31:22;-2.80;99.90
75091;DHT22;63674;48.048;8.306;2023-03-01T04:33:52;-2.80;99.90
75091;DHT22;63674;48.048;8.306;2023-03-01T04:36:23;-2.80;99.90
75091;DHT22;63674;48.048;8.306;2023-03-01T04:38:55;-2.70;99.90
75091;DHT22;63674;48.048;8.306;2023-03-01T04:41:24;-2.70;99.90
75091;DHT22;63674;48.048;8.306;2023-03-01T04:43:54;-2.70;99.90
75091;DHT22;63674;48.048;8.306;2023-03-01T04:46:22;-2.70;99.90
75091;DHT22;63674;48.048;8.306;2023-03-01T04:48:52;-2.70;99.90
75091;DHT22;63674;48.048;8.306;2023-03-01T04:51:21;-2.70;99.90
75091;DHT22;63674;48.048;8.306;2023-03-01T04:53:49;-2.70;99.90
75091;DHT22;63674;48.048;8.306;2023-03-01T04:56:19;-2.60;99.90
75091;DHT22;63674;48.048;8.306;2023-03-01T04:58:52;-2.60;99.90
75091;DHT22;63674;48.048;8.306;2023-03-01T05:01:21;-2.60;99.90
75091;DHT22;63674;48.048;8.306;2023-03-01T05:03:51;-2.60;99.90
75091;DHT22;63674;48.048;8.306;2023-03-01T05:06:20;-2.50;99.90
75091;DHT22;63674;48.048;8.306;2023-03-01T05:08:49;-2.60;99.90
75091;DHT22;63674;48.048;8.306;2023-03-01T05:11:19;-2.60;99.90
75091;DHT22;63674;48.048;8.306;2023-03-01T05:13:47;-2.50;99.90
75091;DHT22;63674;48.048;8.306;2023-03-01T05:16:16;-2.50;99.90
75091;DHT22;63674;48.048;8.306;2023-03-01T05:18:47;-2.50;99.90
75091;DHT22;63674;48.048;8.306;2023-03-01T05:21:17;-2.50;99.90
75091;DHT22;63674;48.048;8.306;2023-03-01T05:23:46;-2.50;99.90
75091;DHT22;63674;48.048;8.306;2023-03-01T05:26:15;-2.50;99.90
75091;DHT22;63674;48.048;8.306;2023-03-01T05:28:56;-2.50;99.90
75091;DHT22;63674;48.048;8.306;2023-03-01T05:31:26;-2.40;99.90
75091;DHT22;63674;48.048;8.306;2023-03-01T05:33:55;-2.40;99.90
75091;DHT22;63674;48.048;8.306;2023-03-01T05:36:24;-2.50;99.90
75091;DHT22;63674;48.048;8.306;2023-03-01T05:38:52;-2.50;99.90
75091;DHT22;63674;48.048;8.306;2023-03-01T05:41:21;-2.40;99.90
75091;DHT22;63674;48.048;8.306;2023-03-01T05:43:50;-2.40;99.90
75091;DHT22;63674;48.048;8.306;2023-03-01T05:46:21;-2.40;99.90
75091;DHT22;63674;48.048;8.306;2023-03-01T05:48:51;-2.30;99.90
75091;DHT22;63674;48.048;8.306;2023-03-01T05:51:20;-2.40;99.90
75091;DHT22;63674;48.048;8.306;2023-03-01T05:53:49;-2.30;99.90
75091;DHT22;63674;48.048;8.306;2023-03-01T05:56:17;-2.30;99.90
75091;DHT22;63674;48.048;8.306;2023-03-01T05:58:47;-2.40;99.90
75091;DHT22;63674;48.048;8.306;2023-03-01T06:01:16;-2.40;99.90
75091;DHT22;63674;48.048;8.306;2023-03-01T06:03:46;-2.40;99.90
75091;DHT22;63674;48.048;8.306;2023-03-01T06:06:14;-2.40;99.90
75091;DHT22;63674;48.048;8.306;2023-03-01T06:08:43;-2.50;99.90
75091;DHT22;63674;48.048;8.306;2023-03-01T06:11:11;-2.50;99.90
75091;DHT22;63674;48.048;8.306;2023-03-01T06:13:41;-2.50;99.90
75091;DHT22;63674;48.048;8.306;2023-03-01T06:16:10;-2.50;99.90
75091;DHT22;63674;48.048;8.306;2023-03-01T06:18:40;-2.50;99.90
75091;DHT22;63674;48.048;8.306;2023-03-01T06:21:10;-2.50;99.90
75091;DHT22;63674;48.048;8.306;2023-03-01T06:23:39;-2.50;99.90
75091;DHT22;63674;48.048;8.306;2023-03-01T06:26:08;-2.50;99.90
75091;DHT22;63674;48.048;8.306;2023-03-01T06:28:37;-2.40;99.90
75091;DHT22;63674;48.048;8.306;2023-03-01T06:31:05;-2.40;99.90
75091;DHT22;63674;48.048;8.306;2023-03-01T06:33:35;-2.40;99.90
75091;DHT22;63674;48.048;8.306;2023-03-01T06:36:04;-2.40;99.90
75091;DHT22;63674;48.048;8.306;2023-03-01T06:38:35;-2.40;99.90
75091;DHT22;63674;48.048;8.306;2023-03-01T06:41:04;-2.40;99.90
75091;DHT22;63674;48.048;8.306;2023-03-01T06:43:33;-2.40;99.90
75091;DHT22;63674;48.048;8.306;2023-03-01T06:46:04;-2.40;99.90
75091;DHT22;63674;48.048;8.306;2023-03-01T06:48:34;-2.40;99.90
75091;DHT22;63674;48.048;8.306;2023-03-01T06:51:03;-2.50;99.90
75091;DHT22;63674;48.048;8.306;2023-03-01T06:53:31;-2.40;99.90
75091;DHT22;63674;48.048;8.306;2023-03-01T06:56:01;-2.50;99.90
75091;DHT22;63674;48.048;8.306;2023-03-01T06:58:30;-2.50;99.90
75091;DHT22;63674;48.048;8.306;2023-03-01T07:00:58;-2.50;99.90
75091;DHT22;63674;48.048;8.306;2023-03-01T07:03:27;-2.50;99.90
75091;DHT22;63674;48.048;8.306;2023-03-01T07:05:55;-2.50;99.90
75091;DHT22;63674;48.048;8.306;2023-03-01T07:08:24;-2.50;99.90
75091;DHT22;63674;48.048;8.306;2023-03-01T07:10:55;-2.40;99.90
75091;DHT22;63674;48.048;8.306;2023-03-01T07:13:25;-2.40;99.90
75091;DHT22;63674;48.048;8.306;2023-03-01T07:15:54;-2.40;99.90
75091;DHT22;63674;48.048;8.306;2023-03-01T07:18:23;-2.40;99.90
75091;DHT22;63674;48.048;8.306;2023-03-01T07:20:51;-2.40;99.90
75091;DHT22;63674;48.048;8.306;2023-03-01T07:23:20;-2.30;99.90
75091;DHT22;63674;48.048;8.306;2023-03-01T07:25:52;-2.30;99.90
75091;DHT22;63674;48.048;8.306;2023-03-01T07:28:22;-2.20;99.90
75091;DHT22;63674;48.048;8.306;2023-03-01T07:30:53;-2.10;99.90
75091;DHT22;63674;48.048;8.306;2023-03-01T07:33:21;-2.20;99.90
75091;DHT22;63674;48.048;8.306;2023-03-01T07:35:56;-2.20;99.90
75091;DHT22;63674;48.048;8.306;2023-03-01T07:38:26;-2.20;99.90
75091;DHT22;63674;48.048;8.306;2023-03-01T07:40:58;-2.20;99.90
75091;DHT22;63674;48.048;8.306;2023-03-01T07:43:30;-2.20;99.90
75091;DHT22;63674;48.048;8.306;2023-03-01T07:45:59;-2.10;99.90
75091;DHT22;63674;48.048;8.306;2023-03-01T07:48:29;-2.00;99.90
75091;DHT22;63674;48.048;8.306;2023-03-01T07:50:58;-1.90;99.90
75091;DHT22;63674;48.048;8.306;2023-03-01T07:53:27;-1.90;99.90
75091;DHT22;63674;48.048;8.306;2023-03-01T07:56:04;-1.90;99.90
75091;DHT22;63674;48.048;8.306;2023-03-01T07:58:35;-2.00;99.90
75091;DHT22;63674;48.048;8.306;2023-03-01T08:01:06;-2.00;99.90
75091;DHT22;63674;48.048;8.306;2023-03-01T08:03:36;-1.90;99.90
75091;DHT22;63674;48.048;8.306;2023-03-01T08:06:06;-1.90;99.90
75091;DHT22;63674;48.048;8.306;2023-03-01T08:08:36;-1.90;99.90
75091;DHT22;63674;48.048;8.306;2023-03-01T08:11:07;-1.90;99.90
75091;DHT22;63674;48.048;8.306;2023-03-01T08:13:40;-1.80;99.90
75091;DHT22;63674;48.048;8.306;2023-03-01T08:16:12;-1.80;99.90
75091;DHT22;63674;48.048;8.306;2023-03-01T08:18:42;-1.80;99.90
75091;DHT22;63674;48.048;8.306;2023-03-01T08:21:13;-1.80;99.90
75091;DHT22;63674;48.048;8.306;2023-03-01T08:23:44;-1.70;99.90
75091;DHT22;63674;48.048;8.306;2023-03-01T08:26:14;-1.70;99.90
75091;DHT22;63674;48.048;8.306;2023-03-01T08:28:47;-1.70;99.90
75091;DHT22;63674;48.048;8.306;2023-03-01T08:31:20;-1.50;99.90
75091;DHT22;63674;48.048;8.306;2023-03-01T08:33:51;-1.50;99.90
75091;DHT22;63674;48.048;8.306;2023-03-01T08:36:23;-1.50;99.90
75091;DHT22;63674;48.048;8.306;2023-03-01T08:38:52;-1.40;99.90
75091;DHT22;63674;48.048;8.306;2023-03-01T08:41:21;-1.40;99.90
75091;DHT22;63674;48.048;8.306;2023-03-01T08:43:51;-1.40;99.90
75091;DHT22;63674;48.048;8.306;2023-03-01T08:46:26;-1.40;99.90
75091;DHT22;63674;48.048;8.306;2023-03-01T08:48:55;-1.20;99.90
75091;DHT22;63674;48.048;8.306;2023-03-01T08:51:24;-1.20;99.90
75091;DHT22;63674;48.048;8.306;2023-03-01T08:53:54;-1.20;99.90
75091;DHT22;63674;48.048;8.306;2023-03-01T08:56:22;-1.20;99.90
75091;DHT22;63674;48.048;8.306;2023-03-01T08:58:52;-1.20;99.90
75091;DHT22;63674;48.048;8.306;2023-03-01T09:01:21;-1.30;99.90
75091;DHT22;63674;48.048;8.306;2023-03-01T09:03:49;-1.30;99.90
75091;DHT22;63674;48.048;8.306;2023-03-01T09:06:18;-1.30;99.90
75091;DHT22;63674;48.048;8.306;2023-03-01T09:08:48;-1.20;99.90
75091;DHT22;63674;48.048;8.306;2023-03-01T09:11:19;-1.10;99.90
75091;DHT22;63674;48.048;8.306;2023-03-01T09:13:50;-1.10;99.90
75091;DHT22;63674;48.048;8.306;2023-03-01T09:16:21;-1.00;99.90
75091;DHT22;63674;48.048;8.306;2023-03-01T09:18:51;-1.00;99.90
75091;DHT22;63674;48.048;8.306;2023-03-01T09:21:23;-0.90;99.90
75091;DHT22;63674;48.048;8.306;2023-03-01T09:24:06;-0.80;99.90
75091;DHT22;63674;48.048;8.306;2023-03-01T09:26:36;-0.70;99.90
75091;DHT22;63674;48.048;8.306;2023-03-01T09:29:06;-0.70;99.90
75091;DHT22;63674;48.048;8.306;2023-03-01T09:31:37;-0.60;99.90
75091;DHT22;63674;48.048;8.306;2023-03-01T09:34:06;-0.70;99.90
75091;DHT22;63674;48.048;8.306;2023-03-01T09:36:35;-0.60;99.90
75091;DHT22;63674;48.048;8.306;2023-03-01T09:39:05;-0.60;99.90
75091;DHT22;63674;48.048;8.306;2023-03-01T09:41:46;-0.60;99.90
75091;DHT22;63674;48.048;8.306;2023-03-01T09:44:40;-0.60;99.90
75091;DHT22;63674;48.048;8.306;2023-03-01T09:47:17;-0.60;99.90
75091;DHT22;63674;48.048;8.306;2023-03-01T09:49:57;-0.60;99.90
75091;DHT22;63674;48.048;8.306;2023-03-01T09:52:35;-0.60;99.90
75091;DHT22;63674;48.048;8.306;2023-03-01T09:55:14;-0.40;99.90
75091;DHT22;63674;48.048;8.306;2023-03-01T09:57:49;-0.50;99.90
75091;DHT22;63674;48.048;8.306;2023-03-01T10:00:30;-0.50;99.90
75091;DHT22;63674;48.048;8.306;2023-03-01T10:03:10;-0.40;99.90
75091;DHT22;63674;48.048;8.306;2023-03-01T10:05:55;-0.40;99.90
75091;DHT22;63674;48.048;8.306;2023-03-01T10:08:38;-0.30;99.90
75091;DHT22;63674;48.048;8.306;2023-03-01T10:11:19;-0.30;99.90
75091;DHT22;63674;48.048;8.306;2023-03-01T10:13:55;-0.30;99.90
75091;DHT22;63674;48.048;8.306;2023-03-01T10:16:37;-0.30;99.90
75091;DHT22;63674;48.048;8.306;2023-03-01T10:19:21;-0.10;99.90
75091;DHT22;63674;48.048;8.306;2023-03-01T10:21:53;0.00;99.90
75091;DHT22;63674;48.048;8.306;2023-03-01T10:24:22;0.10;99.90
75091;DHT22;63674;48.048;8.306;2023-03-01T10:26:54;0.10;99.90
75091;DHT22;63674;48.048;8.306;2023-03-01T10:29:28;0.10;99.90
75091;DHT22;63674;48.048;8.306;2023-03-01T10:32:01;0.10;99.90
75091;DHT22;63674;48.048;8.306;2023-03-01T10:34:35;0.20;99.90
75091;DHT22;63674;48.048;8.306;2023-03-01T10:37:11;0.40;99.90
75091;DHT22;63674;48.048;8.306;2023-03-01T10:39:55;0.40;99.90
75091;DHT22;63674;48.048;8.306;2023-03-01T10:42:30;0.60;99.90
75091;DHT22;63674;48.048;8.306;2023-03-01T10:45:16;0.70;99.90
75091;DHT22;63674;48.048;8.306;2023-03-01T10:48:05;0.70;99.90
75091;DHT22;63674;48.048;8.306;2023-03-01T10:50:38;0.70;99.90
75091;DHT22;63674;48.048;8.306;2023-03-01T10:53:26;0.70;99.90
75091;DHT22;63674;48.048;8.306;2023-03-01T10:55:58;0.70;99.90
75091;DHT22;63674;48.048;8.306;2023-03-01T10:58:29;0.70;99.90
75091;DHT22;63674;48.048;8.306;2023-03-01T11:01:00;0.70;99.90
75091;DHT22;63674;48.048;8.306;2023-03-01T11:03:32;0.70;99.90
75091;DHT22;63674;48.048;8.306;2023-03-01T11:06:05;0.70;99.90
75091;DHT22;63674;48.048;8.306;2023-03-01T11:08:42;0.70;99.90
75091;DHT22;63674;48.048;8.306;2023-03-01T11:11:23;0.70;99.90
75091;DHT22;63674;48.048;8.306;2023-03-01T11:14:00;0.80;99.90
75091;DHT22;63674;48.048;8.306;2023-03-01T11:16:59;0.70;99.90
75091;DHT22;63674;48.048;8.306;2023-03-01T11:19:31;0.70;99.90
75091;DHT22;63674;48.048;8.306;2023-03-01T11:22:03;0.80;99.90
75091;DHT22;63674;48.048;8.306;2023-03-01T11:24:40;0.90;99.90
75091;DHT22;63674;48.048;8.306;2023-03-01T11:27:18;1.10;99.90
75091;DHT22;63674;48.048;8.306;2023-03-01T11:29:52;1.00;99.90
75091;DHT22;63674;48.048;8.306;2023-03-01T11:32:27;1.10;99.90
75091;DHT22;63674;48.048;8.306;2023-03-01T11:35:03;1.00;99.90
75091;DHT22;63674;48.048;8.306;2023-03-01T11:37:37;1.00;99.90
75091;DHT22;63674;48.048;8.306;2023-03-01T11:40:15;1.00;99.90
75091;DHT22;63674;48.048;8.306;2023-03-01T11:42:52;1.00;99.90
75091;DHT22;63674;48.048;8.306;2023-03-01T11:45:36;1.20;99.90
75091;DHT22;63674;48.048;8.306;2023-03-01T11:51:23;1.30;99.90
75091;DHT22;63674;48.048;8.306;2023-03-01T11:54:09;1.30;99.90
75091;DHT22;63674;48.048;8.306;2023-03-01T11:56:47;1.30;99.90
75091;DHT22;63674;48.048;8.306;2023-03-01T12:02:51;1.30;99.90
75091;DHT22;63674;48.048;8.306;2023-03-01T12:05:54;1.50;99.90
75091;DHT22;63674;48.048;8.306;2023-03-01T12:09:02;1.50;99.90
75091;DHT22;63674;48.048;8.306;2023-03-01T12:11:56;1.60;99.90
75091;DHT22;63674;48.048;8.306;2023-03-01T12:14:42;1.50;99.90
75091;DHT22;63674;48.048;8.306;2023-03-01T12:17:45;1.40;99.90
75091;DHT22;63674;48.048;8.306;2023-03-01T12:20:22;1.40;99.90
75091;DHT22;63674;48.048;8.306;2023-03-01T12:23:25;1.40;99.90
75091;DHT22;63674;48.048;8.306;2023-03-01T12:26:12;1.60;99.90
75091;DHT22;63674;48.048;8.306;2023-03-01T12:28:55;1.60;99.90
75091;DHT22;63674;48.048;8.306;2023-03-01T12:35:06;1.80;99.90
75091;DHT22;63674;48.048;8.306;2023-03-01T12:37:51;1.70;99.90
75091;DHT22;63674;48.048;8.306;2023-03-01T12:40:37;1.70;99.90
75091;DHT22;63674;48.048;8.306;2023-03-01T12:43:25;1.60;99.90
75091;DHT22;63674;48.048;8.306;2023-03-01T12:46:10;1.60;99.90
75091;DHT22;63674;48.048;8.306;2023-03-01T12:48:52;1.90;99.90
75091;DHT22;63674;48.048;8.306;2023-03-01T12:51:28;1.90;99.90
75091;DHT22;63674;48.048;8.306;2023-03-01T12:54:00;2.10;99.90
75091;DHT22;63674;48.048;8.306;2023-03-01T12:56:36;2.20;99.90
75091;DHT22;63674;48.048;8.306;2023-03-01T12:59:13;2.20;99.90
75091;DHT22;63674;48.048;8.306;2023-03-01T13:01:51;2.30;99.90
75091;DHT22;63674;48.048;8.306;2023-03-01T13:04:29;2.10;99.90
75091;DHT22;63674;48.048;8.306;2023-03-01T13:07:24;2.10;99.90
75091;DHT22;63674;48.048;8.306;2023-03-01T13:10:06;2.10;99.90
75091;DHT22;63674;48.048;8.306;2023-03-01T13:12:51;2.00;99.90
75091;DHT22;63674;48.048;8.306;2023-03-01T13:15:29;2.10;99.90
75091;DHT22;63674;48.048;8.306;2023-03-01T13:18:00;2.20;99.90
75091;DHT22;63674;48.048;8.306;2023-03-01T13:20:34;2.20;99.90
75091;DHT22;63674;48.048;8.306;2023-03-01T13:23:24;2.30;99.90
75091;DHT22;63674;48.048;8.306;2023-03-01T13:26:06;2.50;99.90
75091;DHT22;63674;48.048;8.306;2023-03-01T13:28:50;2.50;99.90
75091;DHT22;63674;48.048;8.306;2023-03-01T13:37:34;2.40;99.90
75091;DHT22;63674;48.048;8.306;2023-03-01T13:43:32;2.30;99.90
75091;DHT22;63674;48.048;8.306;2023-03-01T13:46:11;2.20;99.90
75091;DHT22;63674;48.048;8.306;2023-03-01T13:48:48;2.30;99.90
75091;DHT22;63674;48.048;8.306;2023-03-01T13:51:23;2.20;99.90
75091;DHT22;63674;48.048;8.306;2023-03-01T13:53:55;2.20;99.90
75091;DHT22;63674;48.048;8.306;2023-03-01T13:56:27;2.20;99.90
75091;DHT22;63674;48.048;8.306;2023-03-01T13:58:59;2.20;99.90
75091;DHT22;63674;48.048;8.306;2023-03-01T14:01:33;2.20;99.90
75091;DHT22;63674;48.048;8.306;2023-03-01T14:04:17;2.40;99.90
75091;DHT22;63674;48.048;8.306;2023-03-01T14:06:48;2.50;99.90
75091;DHT22;63674;48.048;8.306;2023-03-01T14:09:20;2.60;99.90
75091;DHT22;63674;48.048;8.306;2023-03-01T14:12:06;2.60;99.90
75091;DHT22;63674;48.048;8.306;2023-03-01T14:14:52;2.60;99.90
75091;DHT22;63674;48.048;8.306;2023-03-01T14:20:30;2.50;99.90
75091;DHT22;63674;48.048;8.306;2023-03-01T14:23:10;2.50;99.90
75091;DHT22;63674;48.048;8.306;2023-03-01T14:25:47;2.40;99.90
75091;DHT22;63674;48.048;8.306;2023-03-01T14:28:18;2.40;99.90
75091;DHT22;63674;48.048;8.306;2023-03-01T14:30:49;2.60;99.90
75091;DHT22;63674;48.048;8.306;2023-03-01T14:33:23;2.70;99.90
75091;DHT22;63674;48.048;8.306;2023-03-01T14:35:56;2.60;99.90
75091;DHT22;63674;48.048;8.306;2023-03-01T14:38:33;2.70;99.90
75091;DHT22;63674;48.048;8.306;2023-03-01T14:41:06;2.70;99.90
75091;DHT22;63674;48.048;8.306;2023-03-01T14:43:37;2.70;99.90
75091;DHT22;63674;48.048;8.306;2023-03-01T14:46:18;2.80;99.90
75091;DHT22;63674;48.048;8.306;2023-03-01T14:48:50;2.80;99.90
75091;DHT22;63674;48.048;8.306;2023-03-01T14:51:20;2.90;99.90
75091;DHT22;63674;48.048;8.306;2023-03-01T14:53:49;2.90;99.90
75091;DHT22;63674;48.048;8.306;2023-03-01T14:56:18;3.10;99.90
75091;DHT22;63674;48.048;8.306;2023-03-01T14:58:51;3.10;98.20
75091;DHT22;63674;48.048;8.306;2023-03-01T15:01:21;3.10;98.80
75091;DHT22;63674;48.048;8.306;2023-03-01T15:03:51;3.10;99.90
75091;DHT22;63674;48.048;8.306;2023-03-01T15:06:22;3.20;99.90
75091;DHT22;63674;48.048;8.306;2023-03-01T15:08:53;3.20;99.90
75091;DHT22;63674;48.048;8.306;2023-03-01T15:11:28;3.20;99.90
75091;DHT22;63674;48.048;8.306;2023-03-01T15:13:58;3.20;99.90
75091;DHT22;63674;48.048;8.306;2023-03-01T15:16:30;3.20;99.50
75091;DHT22;63674;48.048;8.306;2023-03-01T15:19:03;3.30;95.70
75091;DHT22;63674;48.048;8.306;2023-03-01T15:21:34;3.20;97.30
75091;DHT22;63674;48.048;8.306;2023-03-01T15:24:07;3.20;98.50
75091;DHT22;63674;48.048;8.306;2023-03-01T15:26:54;3.20;99.90
75091;DHT22;63674;48.048;8.306;2023-03-01T15:29:27;3.30;96.20
75091;DHT22;63674;48.048;8.306;2023-03-01T15:31:59;3.30;99.50
75091;DHT22;63674;48.048;8.306;2023-03-01T15:34:33;3.20;99.90
75091;DHT22;63674;48.048;8.306;2023-03-01T15:37:15;3.20;99.90
75091;DHT22;63674;48.048;8.306;2023-03-01T15:40:18;3.20;99.90
75091;DHT22;63674;48.048;8.306;2023-03-01T15:42:51;3.10;96.00
75091;DHT22;63674;48.048;8.306;2023-03-01T15:45:23;3.10;99.90
75091;DHT22;63674;48.048;8.306;2023-03-01T15:47:55;3.10;99.90
75091;DHT22;63674;48.048;8.306;2023-03-01T15:50:26;3.00;99.90
75091;DHT22;63674;48.048;8.306;2023-03-01T15:52:58;3.10;99.90
75091;DHT22;63674;48.048;8.306;2023-03-01T15:55:30;3.20;99.90
75091;DHT22;63674;48.048;8.306;2023-03-01T15:58:02;3.20;99.90
75091;DHT22;63674;48.048;8.306;2023-03-01T16:00:33;3.20;96.90
75091;DHT22;63674;48.048;8.306;2023-03-01T16:03:02;3.00;98.80
75091;DHT22;63674;48.048;8.306;2023-03-01T16:05:32;2.90;99.90
75091;DHT22;63674;48.048;8.306;2023-03-01T16:08:04;2.90;99.90
75091;DHT22;63674;48.048;8.306;2023-03-01T16:10:34;2.80;99.90
75091;DHT22;63674;48.048;8.306;2023-03-01T16:13:03;2.80;99.90
75091;DHT22;63674;48.048;8.306;2023-03-01T16:15:33;2.80;99.90
75091;DHT22;63674;48.048;8.306;2023-03-01T16:18:03;2.70;99.90
75091;DHT22;63674;48.048;8.306;2023-03-01T16:20:32;2.70;99.90
75091;DHT22;63674;48.048;8.306;2023-03-01T16:23:03;2.70;99.90
75091;DHT22;63674;48.048;8.306;2023-03-01T16:25:33;2.60;99.90
75091;DHT22;63674;48.048;8.306;2023-03-01T16:28:03;2.50;99.90
75091;DHT22;63674;48.048;8.306;2023-03-01T16:30:37;2.50;99.90
75091;DHT22;63674;48.048;8.306;2023-03-01T16:33:07;2.50;99.90
75091;DHT22;63674;48.048;8.306;2023-03-01T16:35:56;2.40;99.90
75091;DHT22;63674;48.048;8.306;2023-03-01T16:38:28;2.20;99.90